Time;durP1;ratioP1;P1;durP2;ratioP2;P2;SDS_P1;SDS_P2;PMS_P1;PMS_P2;Temp;Humidity;BMP_temperature;BMP_pressure;BME280_temperature;BME280_humidity;BME280_pressure;Samples;Min_cycle;Max_cycle;Signal;HPM_P1;HPM_P2
2023/06/03 00:02:12;;;;;;;3.05;1.30;;;12.10;93.00;;;;;;5042355;28;20040;-58
2023/06/03 00:04:41;;;;;;;7.53;1.30;;;12.10;93.00;;;;;;5042959;28;20513;-55
2023/06/03 00:07:08;;;;;;;2.95;1.25;;;12.10;92.90;;;;;;5008149;28;20037;-60
2023/06/03 00:09:34;;;;;;;3.72;1.23;;;12.10;93.10;;;;;;5041497;28;20405;-55
2023/06/03 00:12:00;;;;;;;2.20;1.13;;;12.10;92.90;;;;;;5041835;28;20044;-58
2023/06/03 00:14:25;;;;;;;3.38;1.10;;;12.40;93.00;;;;;;5042312;28;20053;-55
2023/06/03 00:16:52;;;;;;;1.98;0.90;;;12.00;92.80;;;;;;5023914;28;20077;-61
2023/06/03 00:19:18;;;;;;;2.70;1.10;;;12.00;92.90;;;;;;5042769;28;20041;-58
2023/06/03 00:21:50;;;;;;;5.68;1.00;;;12.00;92.90;;;;;;5042053;28;20094;-55
2023/06/03 00:24:22;;;;;;;4.15;1.42;;;12.00;92.80;;;;;;5041833;28;20304;-55
2023/06/03 00:26:52;;;;;;;2.70;0.90;;;11.90;92.80;;;;;;5041956;28;20102;-58
2023/06/03 00:29:21;;;;;;;2.42;1.10;;;11.90;92.90;;;;;;5024615;28;20144;-61
2023/06/03 00:31:47;;;;;;;1.98;1.08;;;11.90;92.90;;;;;;5042110;28;20045;-55
2023/06/03 00:34:13;;;;;;;1.92;0.80;;;11.80;92.90;;;;;;5042062;28;20462;-60
2023/06/03 00:36:39;;;;;;;3.00;1.10;;;11.80;93.00;;;;;;5042220;28;20112;-57
2023/06/03 00:39:05;;;;;;;5.05;1.17;;;11.80;93.10;;;;;;5041385;28;20320;-49
2023/06/03 00:41:30;;;;;;;3.03;1.23;;;12.10;93.30;;;;;;5041786;28;20076;-60
2023/06/03 00:43:56;;;;;;;2.22;0.90;;;11.80;93.20;;;;;;5041922;28;20049;-55
2023/06/03 00:46:22;;;;;;;2.45;0.90;;;11.80;93.20;;;;;;5041892;28;20234;-58
2023/06/03 00:48:48;;;;;;;4.15;1.10;;;11.80;93.30;;;;;;5041636;28;20047;-60
2023/06/03 00:51:15;;;;;;;3.83;1.10;;;11.70;93.30;;;;;;5041417;28;20220;-54
2023/06/03 00:53:41;;;;;;;4.57;1.05;;;11.70;93.40;;;;;;5024041;28;20041;-58
2023/06/03 00:56:07;;;;;;;2.72;1.30;;;11.70;93.50;;;;;;5040504;28;20507;-54
2023/06/03 00:58:32;;;;;;;4.50;1.40;;;11.70;93.60;;;;;;5041467;28;20029;-55
2023/06/03 01:00:58;;;;;;;5.15;1.38;;;11.70;93.70;;;;;;5041869;28;20091;-55
2023/06/03 01:03:24;;;;;;;4.15;1.30;;;11.70;93.60;;;;;;5040919;28;20391;-56
2023/06/03 01:06:20;;;;;;;2.70;1.10;;;11.70;93.70;;;;;;5041718;28;20487;-57
2023/06/03 01:09:20;;;;;;;2.20;1.10;;;11.60;93.50;;;;;;4998390;28;20057;-50
2023/06/03 01:12:14;;;;;;;2.13;1.00;;;11.50;93.60;;;;;;4952424;28;20551;-59
2023/06/03 01:14:48;;;;;;;1.80;1.10;;;11.50;93.70;;;;;;5041596;28;20072;-57
2023/06/03 01:17:16;;;;;;;2.75;1.38;;;11.50;93.80;;;;;;5041041;28;20295;-60
2023/06/03 01:19:49;;;;;;;2.58;1.10;;;11.50;93.90;;;;;;5023460;28;20045;-56
2023/06/03 01:22:20;;;;;;;2.55;1.10;;;11.60;94.00;;;;;;5041103;28;20237;-54
2023/06/03 01:24:51;;;;;;;3.40;1.08;;;11.50;94.20;;;;;;5041026;28;20052;-53
2023/06/03 01:27:18;;;;;;;4.10;1.38;;;11.50;94.50;;;;;;5040829;28;20462;-57
2023/06/03 01:29:45;;;;;;;3.67;1.27;;;11.40;94.80;;;;;;5041339;28;20037;-55
2023/06/03 01:32:16;;;;;;;2.58;1.30;;;11.50;95.20;;;;;;5041002;28;20081;-56
2023/06/03 01:34:42;;;;;;;2.92;1.50;;;11.50;95.50;;;;;;5040928;28;20142;-56
2023/06/03 01:37:10;;;;;;;2.85;1.20;;;12.50;95.90;;;;;;5041247;28;20033;-48
2023/06/03 01:39:40;;;;;;;2.38;1.23;;;11.40;95.70;;;;;;5040512;28;20052;-55
2023/06/03 01:42:10;;;;;;;4.03;1.83;;;11.40;95.90;;;;;;5040933;28;20044;-55
2023/06/03 01:44:36;;;;;;;2.65;1.30;;;11.30;96.00;;;;;;5041607;28;20128;-59
2023/06/03 01:47:02;;;;;;;4.80;1.50;;;11.30;96.10;;;;;;5040926;28;20419;-55
2023/06/03 01:49:31;;;;;;;3.65;1.30;;;11.30;96.10;;;;;;5040930;28;20051;-48
2023/06/03 01:51:58;;;;;;;4.68;1.40;;;11.20;96.10;;;;;;5041057;28;20041;-53
2023/06/03 01:54:25;;;;;;;3.50;1.60;;;11.20;96.00;;;;;;5040949;28;20084;-56
2023/06/03 01:56:52;;;;;;;4.97;1.50;;;11.20;96.00;;;;;;5040440;28;20055;-54
2023/06/03 01:59:20;;;;;;;5.78;1.40;;;11.10;96.10;;;;;;5040775;28;20041;-56
2023/06/03 02:01:46;;;;;;;4.40;1.38;;;11.10;96.20;;;;;;5040727;28;20048;-56
2023/06/03 02:04:11;;;;;;;3.67;1.35;;;11.10;96.30;;;;;;5022719;28;20403;-59
2023/06/03 02:06:37;;;;;;;4.50;1.50;;;11.00;96.40;;;;;;5040626;28;20041;-54
2023/06/03 02:09:03;;;;;;;2.67;1.23;;;10.90;96.50;;;;;;5040182;28;20047;-52
2023/06/03 02:11:28;;;;;;;3.45;1.60;;;10.90;96.50;;;;;;5039881;28;20483;-59
2023/06/03 02:13:54;;;;;;;3.05;1.42;;;10.80;96.70;;;;;;5023065;28;20056;-58
2023/06/03 02:16:20;;;;;;;5.40;1.67;;;10.70;96.90;;;;;;5040658;28;20549;-58
2023/06/03 02:18:45;;;;;;;3.35;1.48;;;10.70;97.10;;;;;;5040524;28;20479;-60
2023/06/03 02:21:11;;;;;;;3.85;1.52;;;10.60;97.20;;;;;;5043931;28;20076;-55
2023/06/03 02:23:37;;;;;;;3.92;1.58;;;10.60;97.50;;;;;;5044744;28;20043;-50
2023/06/03 02:26:02;;;;;;;3.25;1.30;;;10.50;97.60;;;;;;5043649;28;20396;-59
2023/06/03 02:28:29;;;;;;;2.75;1.48;;;10.50;97.90;;;;;;5044103;28;20558;-51
2023/06/03 02:30:55;;;;;;;3.72;1.52;;;10.50;98.20;;;;;;5044987;28;20076;-60
2023/06/03 02:33:20;;;;;;;4.15;1.40;;;10.40;98.40;;;;;;5043484;28;20376;-52
2023/06/03 02:35:46;;;;;;;4.55;1.60;;;10.40;98.50;;;;;;5044538;28;20480;-59
2023/06/03 02:38:12;;;;;;;2.67;1.40;;;10.30;98.70;;;;;;5044573;28;20110;-57
2023/06/03 02:40:37;;;;;;;3.05;1.45;;;10.30;98.90;;;;;;5044231;28;20119;-57
2023/06/03 02:43:03;;;;;;;3.95;1.50;;;10.30;99.10;;;;;;5043155;28;20480;-58
2023/06/03 02:45:28;;;;;;;3.33;1.50;;;10.20;99.30;;;;;;5044479;28;20082;-53
2023/06/03 02:47:54;;;;;;;3.35;1.48;;;10.20;99.50;;;;;;5026050;28;20106;-61
2023/06/03 02:50:20;;;;;;;3.33;1.45;;;10.10;99.70;;;;;;5043658;28;20396;-60
2023/06/03 02:52:45;;;;;;;3.13;1.50;;;11.30;99.90;;;;;;5043820;28;20292;-54
2023/06/03 02:55:11;;;;;;;3.00;1.52;;;10.10;99.90;;;;;;5044180;28;20095;-59
2023/06/03 02:57:36;;;;;;;2.92;1.40;;;10.10;99.90;;;;;;5043135;28;20407;-54
2023/06/03 03:00:05;;;;;;;3.88;1.48;;;10.00;99.90;;;;;;5043489;28;20284;-56
2023/06/03 03:02:30;;;;;;;3.85;1.60;;;10.00;99.90;;;;;;5043927;28;20120;-58
2023/06/03 03:04:56;;;;;;;5.40;1.60;;;10.00;99.90;;;;;;5043832;28;20470;-54
2023/06/03 03:07:26;;;;;;;4.82;1.92;;;10.00;99.90;;;;;;5043500;28;20491;-61
2023/06/03 03:09:52;;;;;;;4.43;1.80;;;10.00;99.90;;;;;;5043550;28;20059;-56
2023/06/03 03:12:17;;;;;;;2.78;1.50;;;10.00;99.90;;;;;;5042934;28;20045;-55
2023/06/03 03:14:43;;;;;;;4.15;1.50;;;10.00;99.90;;;;;;5042551;28;20049;-53
2023/06/03 03:17:09;;;;;;;3.92;1.70;;;11.10;99.90;;;;;;5043511;28;20041;-60
2023/06/03 03:19:35;;;;;;;4.60;1.90;;;9.90;99.90;;;;;;5043825;28;20040;-57
2023/06/03 03:22:01;;;;;;;3.00;1.55;;;9.80;99.90;;;;;;5043327;28;20068;-53
2023/06/03 03:24:27;;;;;;;5.82;1.55;;;9.90;99.90;;;;;;5043961;28;20211;-57
2023/06/03 03:26:53;;;;;;;3.15;1.58;;;9.90;99.90;;;;;;5042477;28;20081;-50
2023/06/03 03:29:18;;;;;;;6.18;1.75;;;9.90;99.90;;;;;;5043239;28;20091;-61
2023/06/03 03:31:44;;;;;;;3.15;1.80;;;9.90;99.90;;;;;;5042190;28;20377;-59
2023/06/03 03:34:10;;;;;;;2.95;1.58;;;10.10;99.90;;;;;;5043082;28;20037;-54
2023/06/03 03:36:36;;;;;;;4.32;1.60;;;9.90;99.90;;;;;;5043554;28;20045;-59
2023/06/03 03:39:06;;;;;;;4.10;1.58;;;9.90;99.90;;;;;;5043003;28;20032;-55
2023/06/03 03:41:31;;;;;;;4.80;1.70;;;9.90;99.90;;;;;;5043160;28;20045;-56
2023/06/03 03:43:58;;;;;;;3.75;1.65;;;9.90;99.90;;;;;;5042873;28;20048;-54
2023/06/03 03:46:23;;;;;;;4.03;1.85;;;9.90;99.90;;;;;;5042528;28;20110;-58
2023/06/03 03:48:49;;;;;;;3.35;1.70;;;9.90;99.90;;;;;;5043211;28;20049;-56
2023/06/03 03:51:15;;;;;;;3.75;1.75;;;10.00;99.90;;;;;;5042437;28;20041;-51
2023/06/03 03:53:46;;;;;;;4.22;1.70;;;9.90;99.90;;;;;;5024956;28;20119;-61
2023/06/03 03:56:20;;;;;;;4.93;2.10;;;9.90;99.90;;;;;;5041697;28;20101;-60
2023/06/03 03:58:47;;;;;;;3.63;1.57;;;9.90;99.90;;;;;;5042552;28;20041;-57
2023/06/03 04:01:23;;;;;;;4.80;1.65;;;10.00;99.90;;;;;;5042319;28;20045;-56
2023/06/03 04:03:54;;;;;;;3.45;1.40;;;10.00;99.90;;;;;;5042707;28;20040;-61
2023/06/03 04:06:23;;;;;;;4.55;1.70;;;10.00;99.90;;;;;;5042544;28;20084;-48
2023/06/03 04:08:51;;;;;;;2.97;1.75;;;10.10;99.90;;;;;;5041870;28;20040;-55
2023/06/03 04:11:23;;;;;;;4.55;1.73;;;10.10;99.90;;;;;;5023743;28;20575;-60
2023/06/03 04:13:49;;;;;;;4.15;1.92;;;10.10;99.90;;;;;;5042052;28;20037;-54
2023/06/03 04:16:38;;;;;;;3.80;1.65;;;10.10;99.90;;;;;;5023932;28;20114;-60
2023/06/03 04:19:03;;;;;;;3.35;1.73;;;10.20;99.90;;;;;;5024926;28;20124;-59
2023/06/03 04:21:29;;;;;;;3.78;1.73;;;10.20;99.90;;;;;;5041728;28;20136;-54
2023/06/03 04:23:55;;;;;;;3.25;1.80;;;10.30;99.90;;;;;;5042506;28;20507;-61
2023/06/03 04:26:21;;;;;;;5.40;1.80;;;10.30;99.90;;;;;;5041786;28;20132;-56
2023/06/03 04:28:46;;;;;;;5.10;1.85;;;10.40;99.90;;;;;;5041414;28;20071;-57
2023/06/03 04:31:12;;;;;;;4.65;1.73;;;10.40;99.90;;;;;;5042345;28;20033;-60
2023/06/03 04:33:37;;;;;;;3.47;1.73;;;10.50;99.90;;;;;;5042114;28;20041;-55
2023/06/03 04:36:03;;;;;;;3.55;1.73;;;10.60;99.90;;;;;;5042199;28;20906;-58
2023/06/03 04:38:29;;;;;;;3.67;1.80;;;10.60;99.90;;;;;;5041796;28;20480;-55
2023/06/03 04:40:54;;;;;;;4.80;1.70;;;10.70;99.80;;;;;;5023139;28;20720;-56
2023/06/03 04:43:22;;;;;;;3.45;1.70;;;10.90;99.60;;;;;;5041202;28;20064;-54
2023/06/03 04:45:49;;;;;;;3.88;1.70;;;10.80;99.30;;;;;;5041273;28;20094;-50
2023/06/03 04:48:15;;;;;;;5.22;1.65;;;10.80;99.10;;;;;;5041927;28;20041;-60
2023/06/03 04:50:43;;;;;;;3.33;1.58;;;11.00;99.00;;;;;;5041785;28;20506;-53
2023/06/03 04:53:12;;;;;;;4.53;1.80;;;11.30;98.40;;;;;;5041444;28;20060;-61
2023/06/03 04:55:42;;;;;;;4.05;1.65;;;12.00;98.10;;;;;;5040980;28;20079;-54
2023/06/03 04:58:08;;;;;;;3.08;1.50;;;12.20;97.50;;;;;;5041886;28;20053;-57
2023/06/03 05:00:33;;;;;;;2.90;1.50;;;12.50;96.90;;;;;;5041474;28;20048;-55
2023/06/03 05:02:59;;;;;;;3.45;1.70;;;12.90;96.20;;;;;;5042113;28;20029;-49
2023/06/03 05:05:26;;;;;;;3.78;1.80;;;12.90;95.90;;;;;;5041529;28;20049;-52
2023/06/03 05:07:52;;;;;;;3.15;1.60;;;13.20;95.60;;;;;;5023490;28;20045;-52
2023/06/03 05:10:18;;;;;;;4.25;1.50;;;13.20;95.40;;;;;;5041597;28;20067;-59
2023/06/03 05:12:45;;;;;;;4.07;1.63;;;13.30;95.20;;;;;;5040587;28;20053;-57
2023/06/03 05:15:11;;;;;;;3.40;1.80;;;13.40;95.00;;;;;;5041595;28;20056;-59
2023/06/03 05:17:40;;;;;;;3.00;1.48;;;13.50;94.80;;;;;;5041121;28;20095;-61
2023/06/03 05:20:09;;;;;;;3.25;1.55;;;13.70;94.70;;;;;;5041808;28;20519;-59
2023/06/03 05:22:35;;;;;;;3.33;1.70;;;13.90;94.30;;;;;;5041546;28;20045;-58
2023/06/03 05:25:05;;;;;;;4.55;1.50;;;14.10;94.20;;;;;;5041185;28;20056;-59
2023/06/03 05:27:31;;;;;;;4.22;1.75;;;14.30;93.90;;;;;;5040815;28;20162;-60
2023/06/03 05:29:56;;;;;;;3.10;1.60;;;14.50;93.80;;;;;;5041730;28;20037;-60
2023/06/03 05:32:22;;;;;;;4.15;1.90;;;14.80;93.40;;;;;;5040547;28;20098;-55
2023/06/03 05:34:48;;;;;;;4.82;1.80;;;15.10;93.20;;;;;;5041501;28;20488;-61
2023/06/03 05:37:14;;;;;;;5.15;1.88;;;15.30;92.80;;;;;;5040993;28;20052;-51
2023/06/03 05:39:39;;;;;;;3.25;1.52;;;15.70;92.70;;;;;;5040732;28;20481;-61
2023/06/03 05:42:05;;;;;;;5.30;1.65;;;16.10;92.00;;;;;;5041080;28;20045;-60
2023/06/03 05:44:31;;;;;;;3.15;1.42;;;16.20;91.70;;;;;;5040900;28;20119;-54
2023/06/03 05:46:56;;;;;;;4.25;1.50;;;16.40;91.50;;;;;;5041589;28;20088;-61
2023/06/03 05:49:22;;;;;;;3.25;1.77;;;16.70;91.00;;;;;;5041253;28;20399;-56
2023/06/03 05:51:48;;;;;;;3.38;1.45;;;16.80;90.90;;;;;;5040925;28;20053;-57
2023/06/03 05:54:13;;;;;;;3.72;1.70;;;16.50;90.80;;;;;;5041494;28;20045;-50
2023/06/03 05:56:39;;;;;;;3.28;1.50;;;16.00;90.80;;;;;;5044053;28;20072;-52
2023/06/03 05:59:05;;;;;;;4.30;1.50;;;15.90;91.30;;;;;;5045089;28;20141;-50
2023/06/03 06:01:33;;;;;;;3.08;1.50;;;15.70;91.50;;;;;;5027293;28;20485;-56
2023/06/03 06:03:59;;;;;;;4.15;1.40;;;15.60;91.50;;;;;;5010199;28;20241;-57
2023/06/03 06:06:25;;;;;;;3.75;1.55;;;15.40;91.70;;;;;;5044799;28;20048;-56
2023/06/03 06:08:50;;;;;;;3.67;1.45;;;15.40;91.90;;;;;;5044784;28;20036;-56
2023/06/03 06:11:16;;;;;;;4.50;1.50;;;15.20;92.00;;;;;;5043920;28;20057;-49
2023/06/03 06:13:42;;;;;;;4.13;1.60;;;15.50;92.10;;;;;;5044277;28;20087;-53
2023/06/03 06:16:08;;;;;;;4.68;1.60;;;16.10;91.80;;;;;;5044674;28;20041;-57
2023/06/03 06:18:34;;;;;;;5.78;1.73;;;16.40;91.50;;;;;;5045173;28;20041;-59
2023/06/03 06:21:00;;;;;;;4.95;2.03;;;16.50;91.40;;;;;;5025942;28;20128;-54
2023/06/03 06:23:26;;;;;;;2.95;1.45;;;16.50;91.40;;;;;;5044856;28;20124;-58
2023/06/03 06:25:53;;;;;;;2.60;1.38;;;16.60;91.50;;;;;;5043734;28;20033;-56
2023/06/03 06:28:21;;;;;;;6.85;1.80;;;16.60;91.40;;;;;;5043775;28;20048;-55
2023/06/03 06:30:47;;;;;;;3.97;1.55;;;16.80;91.00;;;;;;5044286;28;20045;-52
2023/06/03 06:33:15;;;;;;;4.93;1.40;;;16.90;90.70;;;;;;5044553;28;20455;-61
2023/06/03 06:35:40;;;;;;;3.88;1.60;;;16.90;90.10;;;;;;5044808;28;20084;-55
2023/06/03 06:38:06;;;;;;;4.60;1.50;;;16.90;90.20;;;;;;5043718;28;20122;-59
2023/06/03 06:40:35;;;;;;;3.03;1.30;;;17.20;90.20;;;;;;5043996;28;20080;-60
2023/06/03 06:43:02;;;;;;;4.80;1.60;;;17.90;89.80;;;;;;5043971;28;20404;-55
2023/06/03 06:45:30;;;;;;;3.08;1.30;;;18.40;87.70;;;;;;5043616;28;20059;-60
2023/06/03 06:48:06;;;;;;;4.15;1.50;;;18.70;87.00;;;;;;5026050;28;20076;-56
2023/06/03 06:50:49;;;;;;;5.03;1.40;;;18.90;85.80;;;;;;5043663;28;20127;-51
2023/06/03 06:53:16;;;;;;;3.03;1.35;;;19.20;86.30;;;;;;5044551;28;20052;-57
2023/06/03 06:55:47;;;;;;;2.80;1.40;;;19.50;85.90;;;;;;5043139;28;20045;-57
2023/06/03 06:58:13;;;;;;;3.60;1.20;;;19.70;85.30;;;;;;5025770;28;20051;-55
2023/06/03 07:00:39;;;;;;;4.55;1.27;;;20.00;84.50;;;;;;5026364;28;20075;-50
2023/06/03 07:03:16;;;;;;;2.55;1.10;;;19.70;84.20;;;;;;5043902;28;20045;-56
2023/06/03 07:05:42;;;;;;;3.97;1.20;;;19.80;84.00;;;;;;5043346;28;20382;-55
2023/06/03 07:08:09;;;;;;;2.75;1.27;;;19.80;83.90;;;;;;5042892;28;20052;-59
2023/06/03 07:10:35;;;;;;;2.88;1.20;;;19.90;83.80;;;;;;5042997;28;20052;-57
2023/06/03 07:13:02;;;;;;;2.90;1.15;;;20.00;84.30;;;;;;5042818;28;20067;-56
2023/06/03 07:15:29;;;;;;;4.20;1.17;;;20.00;83.00;;;;;;5043766;28;20088;-61
2023/06/03 07:17:56;;;;;;;2.72;0.93;;;20.00;82.50;;;;;;5043458;28;20045;-55
2023/06/03 07:20:30;;;;;;;3.45;1.20;;;19.70;81.60;;;;;;5025132;28;20052;-61
2023/06/03 07:22:56;;;;;;;2.35;1.10;;;19.80;82.40;;;;;;5043614;28;20434;-59
2023/06/03 07:25:50;;;;;;;2.28;0.73;;;19.70;82.70;;;;;;5042884;28;20044;-56
2023/06/03 07:28:19;;;;;;;1.77;1.02;;;19.70;80.80;;;;;;5043440;28;20160;-56
2023/06/03 07:30:45;;;;;;;6.28;1.00;;;19.70;80.40;;;;;;5043585;28;20041;-51
2023/06/03 07:33:28;;;;;;;2.97;0.90;;;19.60;81.20;;;;;;5042601;28;20048;-58
2023/06/03 07:35:55;;;;;;;2.00;0.73;;;19.50;80.80;;;;;;5043403;28;20422;-51
2023/06/03 07:38:45;;;;;;;2.10;0.80;;;19.70;81.40;;;;;;5042467;28;20328;-51
2023/06/03 07:41:11;;;;;;;2.75;1.00;;;19.80;81.20;;;;;;5041721;28;20049;-55
2023/06/03 07:43:40;;;;;;;2.00;0.90;;;20.10;81.60;;;;;;5024722;28;20041;-62
2023/06/03 07:46:07;;;;;;;1.90;0.75;;;20.30;81.40;;;;;;5042886;28;20169;-58
2023/06/03 07:48:33;;;;;;;2.80;0.60;;;20.10;79.80;;;;;;5042922;28;20043;-59
2023/06/03 07:50:59;;;;;;;2.85;1.10;;;20.00;79.50;;;;;;5024407;28;20135;-51
2023/06/03 07:53:25;;;;;;;2.83;0.88;;;20.10;80.40;;;;;;5042891;28;20653;-61
2023/06/03 07:55:51;;;;;;;2.67;0.88;;;20.00;79.90;;;;;;5042340;28;20041;-54
2023/06/03 07:58:17;;;;;;;1.85;0.88;;;20.10;80.50;;;;;;5042222;28;20033;-55
2023/06/03 08:00:50;;;;;;;1.80;0.82;;;20.20;80.70;;;;;;5043138;28;20479;-57
2023/06/03 08:03:18;;;;;;;1.52;0.70;;;20.40;80.50;;;;;;5025538;28;20087;-61
2023/06/03 08:05:47;;;;;;;2.33;0.85;;;20.40;79.90;;;;;;5042029;28;20052;-53
2023/06/03 08:08:14;;;;;;;4.35;1.00;;;20.40;79.80;;;;;;5042623;28;20045;-59
2023/06/03 08:10:42;;;;;;;1.48;0.70;;;20.50;79.70;;;;;;5041308;28;20095;-56
2023/06/03 08:13:07;;;;;;;5.53;0.98;;;20.60;80.10;;;;;;5042139;28;20056;-59
2023/06/03 08:15:35;;;;;;;2.72;1.00;;;20.70;79.30;;;;;;5042083;28;20048;-50
2023/06/03 08:18:05;;;;;;;1.65;0.88;;;20.70;78.00;;;;;;5042560;28;20037;-61
2023/06/03 08:20:33;;;;;;;2.47;0.70;;;20.60;77.20;;;;;;5041722;28;20049;-58
2023/06/03 08:22:58;;;;;;;2.22;0.90;;;20.60;78.00;;;;;;5042259;28;20051;-49
2023/06/03 08:25:24;;;;;;;5.28;0.80;;;20.70;78.90;;;;;;5041098;28;20045;-54
2023/06/03 08:27:51;;;;;;;1.25;0.50;;;20.70;78.80;;;;;;5042398;28;20098;-56
2023/06/03 08:30:18;;;;;;;2.60;0.80;;;20.80;79.20;;;;;;5024163;28;20311;-55
2023/06/03 08:32:44;;;;;;;2.05;0.70;;;20.90;78.70;;;;;;5042415;28;20080;-61
2023/06/03 08:35:11;;;;;;;5.63;0.77;;;21.10;77.50;;;;;;5024077;28;20052;-56
2023/06/03 08:37:37;;;;;;;3.88;0.85;;;21.10;78.00;;;;;;5041617;28;20098;-52
2023/06/03 08:40:09;;;;;;;2.05;0.73;;;21.10;77.90;;;;;;5041467;28;20390;-60
2023/06/03 08:42:45;;;;;;;2.30;0.77;;;20.90;76.70;;;;;;5042257;28;20053;-61
2023/06/03 08:45:13;;;;;;;1.20;0.82;;;20.70;75.00;;;;;;5042329;28;20450;-58
2023/06/03 08:47:57;;;;;;;1.42;0.65;;;20.60;76.30;;;;;;5041837;28;20143;-56
2023/06/03 08:50:25;;;;;;;2.25;0.73;;;20.40;75.90;;;;;;5041792;28;20045;-61
2023/06/03 08:52:55;;;;;;;1.77;0.70;;;20.40;76.30;;;;;;5041922;28;20541;-48
2023/06/03 08:55:21;;;;;;;2.72;0.80;;;20.40;75.80;;;;;;5041441;28;20059;-54
2023/06/03 08:58:12;;;;;;;2.10;0.80;;;20.50;77.50;;;;;;5041223;28;20266;-59
2023/06/03 09:00:39;;;;;;;4.45;0.85;;;20.50;77.40;;;;;;5041273;28;20288;-53
2023/06/03 09:03:05;;;;;;;2.65;0.80;;;20.50;77.50;;;;;;5041805;28;20048;-56
2023/06/03 09:05:33;;;;;;;3.53;0.90;;;20.40;78.20;;;;;;5041585;28;20143;-60
2023/06/03 09:07:59;;;;;;;1.27;0.70;;;20.30;78.40;;;;;;5041581;28;20044;-55
2023/06/03 09:10:26;;;;;;;1.73;0.65;;;20.30;78.60;;;;;;5039962;28;20095;-60
2023/06/03 09:12:55;;;;;;;2.28;1.00;;;20.20;78.50;;;;;;5042126;28;20052;-53
2023/06/03 09:15:22;;;;;;;1.42;0.68;;;20.00;78.70;;;;;;5041510;28;20048;-59
2023/06/03 09:17:47;;;;;;;3.00;0.80;;;19.80;79.00;;;;;;5041581;28;20112;-60
2023/06/03 09:20:14;;;;;;;4.70;1.00;;;19.70;79.90;;;;;;5041263;28;20128;-56
2023/06/03 09:22:46;;;;;;;1.50;0.80;;;19.70;79.40;;;;;;5041525;28;20076;-60
2023/06/03 09:25:12;;;;;;;1.48;0.77;;;19.70;77.10;;;;;;5040169;28;20047;-60
2023/06/03 09:27:39;;;;;;;2.53;0.90;;;19.70;79.50;;;;;;5041690;28;20446;-58
2023/06/03 09:30:07;;;;;;;3.03;0.80;;;19.90;80.30;;;;;;5040337;28;20072;-58
2023/06/03 09:32:37;;;;;;;1.83;0.63;;;20.20;79.80;;;;;;5041178;28;20072;-61
2023/06/03 09:35:04;;;;;;;2.13;0.63;;;20.50;78.30;;;;;;5041370;28;20053;-58
2023/06/03 09:37:31;;;;;;;2.45;0.80;;;20.70;79.80;;;;;;5041205;28;20434;-56
2023/06/03 09:39:57;;;;;;;2.90;0.77;;;20.90;78.70;;;;;;5040190;28;20053;-61
2023/06/03 09:42:22;;;;;;;0.98;0.70;;;21.00;77.90;;;;;;5041554;28;20102;-59
2023/06/03 09:44:49;;;;;;;1.83;0.70;;;21.20;78.10;;;;;;5041060;28;20706;-58
2023/06/03 09:47:16;;;;;;;2.45;0.75;;;21.50;78.30;;;;;;5041420;28;20132;-60
2023/06/03 09:50:02;;;;;;;1.98;0.80;;;21.60;79.20;;;;;;5040580;28;20049;-56
2023/06/03 09:52:36;;;;;;;7.40;0.98;;;21.80;72.90;;;;;;5023278;28;20052;-53
2023/06/03 09:55:07;;;;;;;3.13;0.65;;;21.90;76.00;;;;;;5040160;28;20447;-59
2023/06/03 09:57:34;;;;;;;4.40;0.88;;;22.00;78.10;;;;;;5040944;28;20519;-60
2023/06/03 10:00:11;;;;;;;1.95;0.77;;;21.90;76.10;;;;;;5041178;28;20045;-53
2023/06/03 10:02:42;;;;;;;4.25;0.90;;;21.80;75.40;;;;;;5040934;28;20048;-56
2023/06/03 10:05:30;;;;;;;1.98;0.80;;;21.80;75.70;;;;;;5041116;28;20036;-59
2023/06/03 10:07:57;;;;;;;1.90;0.68;;;22.10;76.10;;;;;;5041369;28;20451;-61
2023/06/03 10:10:23;;;;;;;1.75;0.60;;;22.20;75.70;;;;;;5040365;28;20114;-54
2023/06/03 10:12:50;;;;;;;1.75;0.80;;;22.20;75.40;;;;;;5022824;28;20048;-59
2023/06/03 10:15:38;;;;;;;5.13;0.85;;;22.30;73.60;;;;;;5040601;28;20044;-56
2023/06/03 10:18:05;;;;;;;3.13;0.65;;;22.20;74.70;;;;;;5022572;28;20049;-59
2023/06/03 10:20:41;;;;;;;1.88;0.82;;;22.20;76.80;;;;;;5040580;28;20037;-57
2023/06/03 10:23:08;;;;;;;6.00;1.10;;;22.30;73.30;;;;;;5040672;28;20431;-56
2023/06/03 10:25:42;;;;;;;1.90;0.70;;;22.20;75.70;;;;;;5040072;28;20134;-61
2023/06/03 10:28:09;;;;;;;2.17;0.82;;;22.20;74.80;;;;;;5040771;28;20052;-61
2023/06/03 10:30:35;;;;;;;2.20;0.88;;;22.10;77.10;;;;;;5040685;28;20051;-56
2023/06/03 10:33:05;;;;;;;2.05;0.85;;;22.30;77.60;;;;;;5022415;28;20044;-59
2023/06/03 10:35:34;;;;;;;2.20;0.90;;;22.60;76.80;;;;;;5040456;28;20127;-56
2023/06/03 10:38:02;;;;;;;2.92;1.08;;;22.90;76.70;;;;;;5023181;28;20033;-57
2023/06/03 10:40:28;;;;;;;5.00;1.00;;;22.80;76.80;;;;;;5039207;28;20470;-61
2023/06/03 10:42:55;;;;;;;6.32;0.90;;;22.80;76.20;;;;;;5025910;28;20308;-49
2023/06/03 10:45:21;;;;;;;1.85;0.90;;;22.80;75.90;;;;;;5044300;28;20080;-56
2023/06/03 10:47:50;;;;;;;1.45;0.70;;;22.80;77.20;;;;;;5043894;28;20052;-59
2023/06/03 10:50:31;;;;;;;2.72;0.80;;;22.90;76.10;;;;;;5044108;28;20435;-57
2023/06/03 10:53:16;;;;;;;4.93;1.00;;;22.90;75.30;;;;;;5026537;28;20053;-56
2023/06/03 10:56:26;;;;;;;5.05;1.08;;;22.80;75.70;;;;;;5043072;28;20041;-61
2023/06/03 10:59:03;;;;;;;4.07;1.10;;;22.90;73.80;;;;;;5044120;28;20073;-59
2023/06/03 11:01:54;;;;;;;2.67;0.90;;;23.10;76.90;;;;;;5043485;28;20431;-62
2023/06/03 11:04:20;;;;;;;7.03;1.13;;;23.30;73.10;;;;;;5026121;28;20037;-61
2023/06/03 11:06:46;;;;;;;1.50;0.90;;;23.20;75.90;;;;;;5042900;28;20070;-53
2023/06/03 11:09:16;;;;;;;5.05;0.90;;;23.10;75.70;;;;;;5043532;28;20063;-60
2023/06/03 11:11:42;;;;;;;1.58;0.85;;;23.10;75.70;;;;;;5042757;28;20130;-57
2023/06/03 11:14:12;;;;;;;11.38;1.20;;;23.10;74.90;;;;;;5043105;28;20404;-49
2023/06/03 11:16:56;;;;;;;1.42;0.70;;;22.90;75.30;;;;;;5043473;28;20052;-54
2023/06/03 11:19:45;;;;;;;4.05;1.23;;;22.90;74.30;;;;;;5043865;28;20048;-61
2023/06/03 11:22:32;;;;;;;1.88;0.80;;;23.10;75.80;;;;;;5043969;28;20087;-60
2023/06/03 11:24:59;;;;;;;2.45;0.75;;;23.00;76.60;;;;;;5007196;28;20053;-55
2023/06/03 11:27:26;;;;;;;1.95;0.82;;;23.20;76.60;;;;;;5043792;28;20041;-50
2023/06/03 11:29:56;;;;;;;2.50;1.02;;;23.20;75.80;;;;;;5043381;28;20081;-59
2023/06/03 11:32:24;;;;;;;3.45;1.02;;;23.30;76.20;;;;;;5042724;28;20040;-53
2023/06/03 11:34:51;;;;;;;2.63;1.00;;;23.10;76.00;;;;;;5025320;28;20060;-60
2023/06/03 11:37:19;;;;;;;2.67;0.80;;;23.10;76.40;;;;;;5043303;28;20110;-55
2023/06/03 11:40:01;;;;;;;1.92;0.90;;;23.10;75.10;;;;;;5042391;28;20051;-59
2023/06/03 11:42:27;;;;;;;3.20;0.88;;;23.30;72.90;;;;;;5043613;28;20052;-56
2023/06/03 11:44:53;;;;;;;1.80;0.70;;;23.40;75.50;;;;;;5043027;28;20331;-61
2023/06/03 11:47:18;;;;;;;1.38;0.90;;;23.50;75.60;;;;;;5042824;28;20472;-59
2023/06/03 11:49:44;;;;;;;1.25;0.73;;;23.40;75.40;;;;;;5024899;28;20098;-55
2023/06/03 11:52:10;;;;;;;1.52;0.90;;;23.50;75.60;;;;;;5042663;28;20041;-61
2023/06/03 11:54:38;;;;;;;2.70;0.85;;;23.50;75.80;;;;;;5041712;28;20060;-53
2023/06/03 11:57:05;;;;;;;2.17;0.90;;;23.50;76.30;;;;;;5043272;28;20037;-59
2023/06/03 11:59:42;;;;;;;4.90;0.90;;;23.60;75.40;;;;;;5025100;28;20431;-56
2023/06/03 12:02:08;;;;;;;2.55;1.00;;;23.80;74.40;;;;;;5042919;28;20135;-57
2023/06/03 12:04:35;;;;;;;3.75;1.10;;;23.60;75.20;;;;;;5042748;28;20132;-62
2023/06/03 12:07:01;;;;;;;4.22;0.80;;;23.50;75.00;;;;;;5042959;28;20041;-56
2023/06/03 12:09:28;;;;;;;3.53;0.90;;;23.40;75.50;;;;;;5040986;28;20053;-60
2023/06/03 12:11:55;;;;;;;2.17;0.70;;;23.30;75.70;;;;;;5042788;28;20060;-57
2023/06/03 12:14:24;;;;;;;3.92;1.23;;;23.40;77.10;;;;;;5042088;28;20044;-55
2023/06/03 12:16:51;;;;;;;4.45;1.10;;;23.40;75.70;;;;;;5041991;28;20048;-59
2023/06/03 12:19:17;;;;;;;3.88;1.67;;;23.40;76.30;;;;;;5042743;28;20059;-60
2023/06/03 12:21:43;;;;;;;2.08;1.00;;;23.30;75.60;;;;;;5042306;28;20053;-54
2023/06/03 12:24:12;;;;;;;2.42;0.98;;;23.40;75.50;;;;;;5041431;28;20401;-59
2023/06/03 12:26:40;;;;;;;5.10;1.00;;;23.50;76.40;;;;;;5042119;28;20044;-57
2023/06/03 12:29:08;;;;;;;2.53;0.90;;;23.50;75.10;;;;;;5041993;28;20047;-61
2023/06/03 12:31:34;;;;;;;2.47;0.70;;;23.50;75.10;;;;;;5041902;28;20045;-56
2023/06/03 12:34:00;;;;;;;7.00;1.05;;;23.60;76.40;;;;;;5042372;28;20095;-54
2023/06/03 12:36:47;;;;;;;2.40;0.90;;;23.80;76.00;;;;;;5042772;28;20094;-60
2023/06/03 12:39:13;;;;;;;1.50;0.90;;;23.80;73.60;;;;;;5024095;28;20164;-58
2023/06/03 12:41:49;;;;;;;3.22;1.15;;;23.80;75.30;;;;;;5042345;28;20048;-56
2023/06/03 12:44:15;;;;;;;2.47;0.80;;;23.90;77.40;;;;;;5041721;28;20209;-56
2023/06/03 12:46:40;;;;;;;2.63;0.88;;;23.80;74.80;;;;;;5042055;28;20234;-52
2023/06/03 12:49:14;;;;;;;3.40;0.98;;;23.70;76.10;;;;;;5041915;28;20076;-61
2023/06/03 12:51:39;;;;;;;1.20;0.80;;;23.60;75.10;;;;;;5041368;28;20099;-62
2023/06/03 12:54:05;;;;;;;1.27;0.85;;;23.60;75.90;;;;;;5041304;28;20077;-54
2023/06/03 12:56:33;;;;;;;3.60;1.00;;;23.60;75.40;;;;;;5041891;28;20045;-58